Time;durP1;ratioP1;P1;durP2;ratioP2;P2;SDS_P1;SDS_P2;PMS_P1;PMS_P2;Temp;Humidity;BMP_temperature;BMP_pressure;BME280_temperature;BME280_humidity;BME280_pressure;Samples;Min_cycle;Max_cycle;Signal;HPM_P1;HPM_P2
2024/02/03 00:00:40;;;;;;;0.20;0.20;;;6.20;40.60;;;;;;2070982;28;20261;-65
2024/02/03 00:01:41;;;;;;;0.30;0.30;;;6.20;40.90;;;;;;2070381;28;20276;-67
2024/02/03 00:02:41;;;;;;;0.20;0.20;;;6.20;41.00;;;;;;2061383;28;20360;-66
2024/02/03 00:03:42;;;;;;;0.30;0.30;;;6.30;41.80;;;;;;2062207;28;20234;-66
2024/02/03 00:04:43;;;;;;;0.30;0.30;;;6.30;42.90;;;;;;2061969;28;20230;-65
2024/02/03 00:05:44;;;;;;;0.30;0.30;;;6.30;42.40;;;;;;2062058;28;20230;-66
2024/02/03 00:06:45;;;;;;;0.30;0.30;;;6.30;42.10;;;;;;2061658;28;20230;-65
2024/02/03 00:07:45;;;;;;;0.30;0.30;;;6.30;42.30;;;;;;2070713;28;20672;-65
2024/02/03 00:08:46;;;;;;;0.40;0.40;;;6.30;42.00;;;;;;2070335;28;20266;-65
2024/02/03 00:09:50;;;;;;;0.40;0.40;;;6.30;40.90;;;;;;2070782;28;20318;-64
2024/02/03 00:10:51;;;;;;;0.30;0.30;;;6.30;41.90;;;;;;2068306;28;20221;-65
2024/02/03 00:11:51;;;;;;;0.30;0.30;;;6.30;41.40;;;;;;2070808;28;20313;-65
2024/02/03 00:12:52;;;;;;;0.30;0.30;;;6.30;40.90;;;;;;2052590;28;20262;-65
2024/02/03 00:13:55;;;;;;;0.20;0.20;;;6.20;40.50;;;;;;2038762;28;20252;-67
2024/02/03 00:14:56;;;;;;;0.28;0.28;;;6.20;39.00;;;;;;2049434;28;20235;-66
2024/02/03 00:15:57;;;;;;;0.20;0.20;;;6.20;39.00;;;;;;2063663;28;20333;-66
2024/02/03 00:17:00;;;;;;;0.20;0.20;;;6.10;39.00;;;;;;2067861;28;20229;-67
2024/02/03 00:18:01;;;;;;;0.28;0.28;;;6.10;39.10;;;;;;2061143;28;20637;-67
2024/02/03 00:19:02;;;;;;;0.40;0.30;;;6.20;38.90;;;;;;2061918;28;20192;-67
2024/02/03 00:20:03;;;;;;;0.70;0.40;;;6.20;39.00;;;;;;2060521;28;20537;-67
2024/02/03 00:21:04;;;;;;;0.30;0.30;;;6.30;39.30;;;;;;2062888;28;20726;-67
2024/02/03 00:22:05;;;;;;;0.30;0.30;;;6.30;39.30;;;;;;2061918;28;20202;-65
2024/02/03 00:23:06;;;;;;;0.30;0.30;;;6.30;40.00;;;;;;2061881;28;20270;-65
2024/02/03 00:24:07;;;;;;;0.67;0.43;;;6.40;39.60;;;;;;2061890;28;20209;-65
2024/02/03 00:25:08;;;;;;;0.30;0.30;;;6.40;40.00;;;;;;2061935;28;20182;-66
2024/02/03 00:26:09;;;;;;;0.50;0.45;;;6.40;40.10;;;;;;2053818;28;20878;-66
2024/02/03 00:27:09;;;;;;;0.80;0.60;;;6.40;39.90;;;;;;2061125;28;20175;-66
2024/02/03 00:28:10;;;;;;;0.90;0.60;;;6.40;39.80;;;;;;2061696;28;20325;-67
2024/02/03 00:29:12;;;;;;;1.50;0.50;;;6.40;40.40;;;;;;2054906;28;20233;-66
2024/02/03 00:30:13;;;;;;;0.50;0.50;;;6.30;40.60;;;;;;2062222;28;20237;-66
2024/02/03 00:31:15;;;;;;;0.40;0.40;;;6.20;40.90;;;;;;2070559;28;20189;-66
2024/02/03 00:32:16;;;;;;;0.40;0.40;;;6.10;40.80;;;;;;2070143;28;20265;-66
2024/02/03 00:33:16;;;;;;;0.30;0.30;;;6.20;40.00;;;;;;2056853;28;20187;-66
2024/02/03 00:34:17;;;;;;;0.50;0.50;;;6.10;41.10;;;;;;2052620;28;20191;-66
2024/02/03 00:35:18;;;;;;;0.40;0.40;;;6.00;41.60;;;;;;2053332;28;20280;-66
2024/02/03 00:36:23;;;;;;;0.40;0.30;;;6.00;42.90;;;;;;2061075;28;20804;-66
2024/02/03 00:37:23;;;;;;;1.23;0.40;;;5.90;43.40;;;;;;2060926;28;20286;-65
2024/02/03 00:38:24;;;;;;;0.50;0.50;;;5.80;45.90;;;;;;2061067;28;20726;-67
2024/02/03 00:39:25;;;;;;;0.30;0.30;;;5.60;44.70;;;;;;2070042;28;20236;-67
2024/02/03 00:40:25;;;;;;;0.50;0.43;;;5.50;44.80;;;;;;2070397;28;20242;-69
2024/02/03 00:41:26;;;;;;;0.40;0.40;;;5.50;45.60;;;;;;2070504;28;20308;-67
2024/02/03 00:42:26;;;;;;;0.37;0.37;;;5.50;44.10;;;;;;2065931;28;20691;-69
2024/02/03 00:43:27;;;;;;;0.40;0.40;;;5.50;40.60;;;;;;2067013;28;20272;-68
2024/02/03 00:44:28;;;;;;;0.40;0.30;;;5.60;39.20;;;;;;2054701;28;20287;-65
2024/02/03 00:45:28;;;;;;;0.30;0.30;;;5.60;38.90;;;;;;2045896;28;20908;-67
2024/02/03 00:46:29;;;;;;;1.07;0.30;;;5.70;38.60;;;;;;2061943;28;20289;-66
2024/02/03 00:47:30;;;;;;;0.50;0.40;;;5.90;37.60;;;;;;2061738;28;20233;-66
2024/02/03 00:48:30;;;;;;;0.30;0.30;;;5.90;37.60;;;;;;2063172;28;20312;-66
2024/02/03 00:49:31;;;;;;;0.40;0.40;;;5.80;37.80;;;;;;2070591;28;20308;-67
2024/02/03 00:50:32;;;;;;;0.67;0.40;;;5.80;38.30;;;;;;2070481;28;20237;-66
2024/02/03 00:51:33;;;;;;;0.20;0.20;;;5.80;40.70;;;;;;2062978;28;20230;-68
2024/02/03 00:52:33;;;;;;;0.20;0.20;;;5.70;41.10;;;;;;2061889;28;20245;-68
2024/02/03 00:53:35;;;;;;;0.50;0.40;;;5.80;37.60;;;;;;2070694;28;20728;-67
2024/02/03 00:54:37;;;;;;;0.30;0.30;;;5.70;36.20;;;;;;2070030;28;20702;-67
2024/02/03 00:55:37;;;;;;;1.17;0.47;;;5.90;34.90;;;;;;2070717;28;20241;-66
2024/02/03 00:56:38;;;;;;;0.30;0.30;;;5.90;35.10;;;;;;2062270;28;20241;-67
2024/02/03 00:57:39;;;;;;;0.30;0.30;;;5.90;35.00;;;;;;2053949;28;20242;-66
2024/02/03 00:58:39;;;;;;;0.53;0.40;;;6.10;34.00;;;;;;2062038;28;20614;-66
2024/02/03 00:59:40;;;;;;;0.50;0.50;;;6.10;33.70;;;;;;2070895;28;20229;-65
2024/02/03 01:00:41;;;;;;;0.20;0.20;;;6.10;35.00;;;;;;2070458;28;20261;-66
2024/02/03 01:01:41;;;;;;;0.33;0.33;;;6.00;34.40;;;;;;2067739;28;20221;-66
2024/02/03 01:02:42;;;;;;;0.30;0.30;;;6.20;33.10;;;;;;2070776;28;20284;-67
2024/02/03 01:03:43;;;;;;;0.30;0.30;;;6.30;34.00;;;;;;2070173;28;21041;-67
2024/02/03 01:04:44;;;;;;;0.40;0.40;;;6.30;35.60;;;;;;2062005;28;20236;-68
2024/02/03 01:05:44;;;;;;;0.43;0.40;;;6.20;36.90;;;;;;2061818;28;20608;-68
2024/02/03 01:06:45;;;;;;;1.43;0.50;;;6.20;37.40;;;;;;2070796;28;20226;-68
2024/02/03 01:07:46;;;;;;;0.60;0.30;;;6.20;37.20;;;;;;2070868;28;20397;-69
2024/02/03 01:08:47;;;;;;;5.57;0.50;;;6.20;37.70;;;;;;2055458;28;20222;-67
2024/02/03 01:09:48;;;;;;;0.30;0.30;;;6.20;36.60;;;;;;2053311;28;20218;-68
2024/02/03 01:10:49;;;;;;;0.50;0.43;;;6.10;37.30;;;;;;2061457;28;20603;-67
2024/02/03 01:11:49;;;;;;;0.47;0.30;;;6.10;35.40;;;;;;2068222;28;20225;-69
2024/02/03 01:12:50;;;;;;;0.77;0.40;;;6.00;39.10;;;;;;2070049;28;20225;-68
2024/02/03 01:13:51;;;;;;;0.30;0.30;;;5.90;39.50;;;;;;2061498;28;20219;-67
2024/02/03 01:14:53;;;;;;;0.30;0.30;;;6.00;39.80;;;;;;2053251;28;20234;-68
2024/02/03 01:15:53;;;;;;;0.43;0.43;;;6.00;36.40;;;;;;2061094;28;20284;-67
2024/02/03 01:16:55;;;;;;;0.20;0.20;;;6.00;36.10;;;;;;2070809;28;20323;-67
2024/02/03 01:17:56;;;;;;;0.30;0.30;;;5.90;36.70;;;;;;2069560;28;20345;-68
2024/02/03 01:18:57;;;;;;;0.33;0.33;;;5.90;38.60;;;;;;2065935;28;20628;-69
2024/02/03 01:19:57;;;;;;;0.77;0.50;;;5.80;39.10;;;;;;2062653;28;20217;-68
2024/02/03 01:20:58;;;;;;;1.80;0.50;;;5.80;41.80;;;;;;2070368;28;20280;-67
2024/02/03 01:21:59;;;;;;;0.40;0.40;;;5.80;39.70;;;;;;2069970;28;20227;-66
2024/02/03 01:23:00;;;;;;;0.50;0.50;;;5.60;39.60;;;;;;2069878;28;20253;-67
2024/02/03 01:24:00;;;;;;;0.45;0.40;;;5.50;42.20;;;;;;2060268;28;20230;-69
2024/02/03 01:25:01;;;;;;;0.60;0.60;;;5.40;42.20;;;;;;2051925;28;20362;-67
2024/02/03 01:26:02;;;;;;;1.30;0.60;;;5.40;41.70;;;;;;2061579;28;20294;-65
2024/02/03 01:27:03;;;;;;;0.63;0.40;;;5.30;42.20;;;;;;2061743;28;20182;-66
2024/02/03 01:28:04;;;;;;;0.60;0.50;;;5.30;42.90;;;;;;2061247;28;20261;-66
2024/02/03 01:29:05;;;;;;;0.40;0.40;;;5.20;43.40;;;;;;2061811;28;20200;-67
2024/02/03 01:30:08;;;;;;;0.30;0.30;;;5.20;42.10;;;;;;2053680;28;20190;-66
2024/02/03 01:31:09;;;;;;;0.50;0.50;;;5.20;39.10;;;;;;2061805;28;20178;-66
2024/02/03 01:32:09;;;;;;;0.40;0.40;;;5.10;42.00;;;;;;2071218;28;20280;-66
2024/02/03 01:33:10;;;;;;;0.40;0.40;;;5.10;42.30;;;;;;2070622;28;20659;-66
2024/02/03 01:34:11;;;;;;;3.50;0.40;;;5.00;41.60;;;;;;2062477;28;20187;-66
2024/02/03 01:35:11;;;;;;;0.70;0.40;;;5.00;42.50;;;;;;2060492;28;20670;-68
2024/02/03 01:36:12;;;;;;;0.43;0.33;;;5.00;42.70;;;;;;2061193;28;20186;-67
2024/02/03 01:37:13;;;;;;;0.30;0.30;;;5.20;40.30;;;;;;2053419;28;20629;-67
2024/02/03 01:38:13;;;;;;;0.40;0.40;;;5.10;39.00;;;;;;2045346;28;20210;-67
2024/02/03 01:39:14;;;;;;;0.30;0.30;;;5.10;39.60;;;;;;2061908;28;20658;-66
2024/02/03 01:40:15;;;;;;;0.37;0.37;;;5.20;40.70;;;;;;2070203;28;20192;-67
2024/02/03 01:41:16;;;;;;;0.43;0.37;;;5.20;41.60;;;;;;2061503;28;20182;-66
2024/02/03 01:42:17;;;;;;;0.43;0.40;;;5.20;43.60;;;;;;2061830;28;20186;-66
2024/02/03 01:43:17;;;;;;;0.30;0.30;;;5.20;40.10;;;;;;2070686;28;20277;-65
2024/02/03 01:44:18;;;;;;;0.30;0.30;;;5.20;42.60;;;;;;2060966;28;20182;-65
2024/02/03 01:45:19;;;;;;;0.40;0.40;;;5.20;44.50;;;;;;2053646;28;20706;-70
2024/02/03 01:46:20;;;;;;;0.27;0.27;;;5.20;45.00;;;;;;2061251;28;20186;-68
2024/02/03 01:47:21;;;;;;;1.77;0.50;;;5.20;45.40;;;;;;2061936;28;20733;-66
2024/02/03 01:48:22;;;;;;;0.60;0.60;;;5.20;46.70;;;;;;2053885;28;20261;-66
2024/02/03 01:49:22;;;;;;;0.93;0.40;;;5.10;46.10;;;;;;2061854;28;20730;-65
2024/02/03 01:50:26;;;;;;;0.90;0.50;;;5.00;45.90;;;;;;2061842;28;20250;-64
2024/02/03 01:51:27;;;;;;;0.65;0.57;;;4.90;46.70;;;;;;2061812;28;20222;-65
2024/02/03 01:52:28;;;;;;;0.30;0.30;;;4.90;47.30;;;;;;2053248;28;20242;-65
2024/02/03 01:53:29;;;;;;;0.30;0.30;;;4.80;47.30;;;;;;2053715;28;20309;-65
2024/02/03 01:54:31;;;;;;;0.43;0.43;;;4.80;47.30;;;;;;2053634;28;21103;-66
2024/02/03 01:55:32;;;;;;;2.00;0.40;;;4.70;47.00;;;;;;2062038;28;20299;-67
2024/02/03 01:56:36;;;;;;;0.65;0.40;;;4.60;45.40;;;;;;2053755;28;20733;-66
2024/02/03 01:57:40;;;;;;;0.30;0.30;;;4.50;44.70;;;;;;2054245;28;20222;-67
2024/02/03 01:58:42;;;;;;;0.30;0.30;;;4.50;44.80;;;;;;2054893;28;20240;-67
2024/02/03 01:59:43;;;;;;;0.90;0.43;;;4.40;45.60;;;;;;2054035;28;20234;-66
2024/02/03 02:00:45;;;;;;;0.30;0.30;;;4.40;46.40;;;;;;2061848;28;20753;-66
2024/02/03 02:01:47;;;;;;;0.20;0.20;;;4.40;47.20;;;;;;2069069;28;20233;-66
2024/02/03 02:02:47;;;;;;;0.30;0.30;;;4.50;47.40;;;;;;2061092;28;20261;-66
2024/02/03 02:03:48;;;;;;;0.40;0.40;;;4.40;49.10;;;;;;2060431;28;20236;-66
2024/02/03 02:04:49;;;;;;;0.30;0.30;;;4.40;49.60;;;;;;2068189;28;20283;-67
2024/02/03 02:05:50;;;;;;;0.20;0.20;;;4.40;50.00;;;;;;2066601;28;20346;-67
2024/02/03 02:06:50;;;;;;;0.30;0.30;;;4.30;49.80;;;;;;2068129;28;20238;-66
2024/02/03 02:07:51;;;;;;;0.37;0.37;;;4.20;50.60;;;;;;2068550;28;20235;-66
2024/02/03 02:08:52;;;;;;;1.27;0.40;;;4.20;50.70;;;;;;2068733;28;20232;-66
2024/02/03 02:09:53;;;;;;;0.30;0.30;;;4.10;50.90;;;;;;2062246;28;20233;-66
2024/02/03 02:10:54;;;;;;;1.20;0.50;;;4.20;51.70;;;;;;2042501;28;20230;-66
2024/02/03 02:11:56;;;;;;;0.40;0.40;;;4.20;52.00;;;;;;2053010;28;20225;-66
2024/02/03 02:12:57;;;;;;;0.52;0.50;;;4.10;52.60;;;;;;2060341;28;20225;-66
2024/02/03 02:13:58;;;;;;;0.40;0.30;;;4.10;53.30;;;;;;2060116;28;20225;-66
2024/02/03 02:14:59;;;;;;;0.30;0.30;;;3.90;53.50;;;;;;2062586;28;20868;-66
2024/02/03 02:16:00;;;;;;;1.23;0.40;;;3.90;53.80;;;;;;2057681;28;20264;-66
2024/02/03 02:17:00;;;;;;;0.30;0.30;;;3.80;55.00;;;;;;2060239;28;20240;-66
2024/02/03 02:18:02;;;;;;;0.23;0.23;;;3.80;54.90;;;;;;2050030;28;20230;-66
2024/02/03 02:19:03;;;;;;;0.40;0.40;;;3.80;53.20;;;;;;2060612;28;20193;-66
2024/02/03 02:20:08;;;;;;;0.20;0.20;;;3.80;53.40;;;;;;2067435;28;20668;-66
2024/02/03 02:21:09;;;;;;;0.52;0.30;;;3.80;53.40;;;;;;2061248;28;20181;-66
2024/02/03 02:22:10;;;;;;;0.43;0.33;;;3.70;54.50;;;;;;2059805;28;20247;-66
2024/02/03 02:23:11;;;;;;;1.27;0.40;;;3.80;53.00;;;;;;2052233;28;20182;-66
2024/02/03 02:24:15;;;;;;;0.30;0.30;;;3.90;53.20;;;;;;2052458;28;20507;-67
2024/02/03 02:25:16;;;;;;;0.35;0.35;;;3.80;55.50;;;;;;2056729;28;20183;-66
2024/02/03 02:26:16;;;;;;;0.27;0.27;;;3.80;54.80;;;;;;2051729;28;20191;-66
2024/02/03 02:27:17;;;;;;;0.30;0.30;;;3.80;55.00;;;;;;2052734;28;20266;-67
2024/02/03 02:28:18;;;;;;;0.30;0.30;;;3.80;55.80;;;;;;2068622;28;20276;-66
2024/02/03 02:29:19;;;;;;;0.73;0.43;;;3.70;57.00;;;;;;2068870;28;20192;-66
2024/02/03 02:30:20;;;;;;;0.33;0.33;;;3.70;56.70;;;;;;2070189;28;20242;-66
2024/02/03 02:31:20;;;;;;;0.38;0.30;;;3.60;58.70;;;;;;2058231;28;20182;-66
2024/02/03 02:32:21;;;;;;;0.43;0.30;;;3.50;60.00;;;;;;2060541;28;20238;-67
2024/02/03 02:33:22;;;;;;;0.30;0.30;;;3.60;57.90;;;;;;2060538;28;20319;-66
2024/02/03 02:34:23;;;;;;;0.30;0.30;;;3.60;55.50;;;;;;2060205;28;20316;-66
2024/02/03 02:35:23;;;;;;;0.77;0.40;;;3.60;58.40;;;;;;2061654;28;20241;-66
2024/02/03 02:36:24;;;;;;;0.27;0.27;;;3.60;60.30;;;;;;2060688;28;20665;-66
2024/02/03 02:37:25;;;;;;;0.23;0.23;;;3.60;56.10;;;;;;2070088;28;20232;-66
2024/02/03 02:38:26;;;;;;;0.40;0.40;;;3.70;56.00;;;;;;2060393;28;20742;-66
2024/02/03 02:39:27;;;;;;;0.97;0.30;;;3.60;57.70;;;;;;2058642;28;20247;-67
2024/02/03 02:40:28;;;;;;;0.37;0.37;;;3.70;55.20;;;;;;2064204;28;20292;-67
2024/02/03 02:41:28;;;;;;;0.60;0.60;;;3.80;54.70;;;;;;2060906;28;20634;-67
2024/02/03 02:42:29;;;;;;;1.07;0.30;;;4.10;52.20;;;;;;2059652;28;20269;-66
2024/02/03 02:43:30;;;;;;;1.10;0.40;;;4.20;51.50;;;;;;2069959;28;20756;-67
2024/02/03 02:44:30;;;;;;;0.30;0.30;;;4.30;51.60;;;;;;2068666;28;20339;-67
2024/02/03 02:45:31;;;;;;;0.30;0.30;;;4.50;50.80;;;;;;2062045;28;20337;-65
2024/02/03 02:46:32;;;;;;;0.30;0.30;;;4.60;50.20;;;;;;2044569;28;20587;-65
2024/02/03 02:47:32;;;;;;;0.40;0.40;;;4.70;50.10;;;;;;2052604;28;20229;-66
2024/02/03 02:48:33;;;;;;;0.30;0.30;;;4.90;49.30;;;;;;2067969;28;20709;-66
2024/02/03 02:49:34;;;;;;;0.37;0.37;;;5.00;49.60;;;;;;2052675;28;20234;-66
2024/02/03 02:50:35;;;;;;;0.30;0.30;;;5.20;48.50;;;;;;2052561;28;20238;-67
2024/02/03 02:51:35;;;;;;;0.30;0.30;;;5.30;48.30;;;;;;2069901;28;20264;-67
2024/02/03 02:52:36;;;;;;;0.63;0.57;;;5.30;48.10;;;;;;2060827;28;20494;-66
2024/02/03 02:53:37;;;;;;;0.40;0.40;;;5.40;48.20;;;;;;2056228;28;20226;-67
2024/02/03 02:54:37;;;;;;;0.30;0.30;;;5.50;48.50;;;;;;2063718;28;20240;-66
2024/02/03 02:55:38;;;;;;;0.40;0.40;;;5.50;48.30;;;;;;2058043;28;20250;-66
2024/02/03 02:56:39;;;;;;;0.30;0.30;;;5.50;48.40;;;;;;2057816;28;20321;-67
2024/02/03 02:57:40;;;;;;;0.37;0.37;;;5.50;48.40;;;;;;2069480;28;20233;-66
2024/02/03 02:58:40;;;;;;;0.30;0.30;;;5.40;48.30;;;;;;2069618;28;20217;-66
2024/02/03 02:59:42;;;;;;;0.30;0.30;;;5.50;49.10;;;;;;2069509;28;20229;-66
2024/02/03 03:00:43;;;;;;;0.40;0.40;;;5.50;48.40;;;;;;2069940;28;20236;-67
2024/02/03 03:01:43;;;;;;;0.50;0.50;;;5.50;48.20;;;;;;2061151;28;20702;-66
2024/02/03 03:02:44;;;;;;;0.40;0.40;;;5.50;48.40;;;;;;2071263;28;20657;-66
2024/02/03 03:03:45;;;;;;;0.40;0.40;;;5.50;48.40;;;;;;2061394;28;20690;-67
2024/02/03 03:04:45;;;;;;;0.40;0.40;;;5.50;48.40;;;;;;2060773;28;20221;-66
2024/02/03 03:05:46;;;;;;;1.30;0.40;;;5.60;48.10;;;;;;2069580;28;20304;-66
2024/02/03 03:06:47;;;;;;;0.60;0.60;;;5.50;48.70;;;;;;2059782;28;20731;-67
2024/02/03 03:07:47;;;;;;;0.40;0.40;;;5.50;49.70;;;;;;2045878;28;20224;-66
2024/02/03 03:08:48;;;;;;;0.47;0.33;;;5.50;49.40;;;;;;2052535;28;20235;-66
2024/02/03 03:09:49;;;;;;;0.40;0.30;;;5.50;49.90;;;;;;2051420;28;20235;-66
2024/02/03 03:10:49;;;;;;;0.30;0.30;;;5.40;49.80;;;;;;2059826;28;20230;-66
2024/02/03 03:11:50;;;;;;;0.30;0.30;;;5.50;50.00;;;;;;2068604;28;20229;-65
2024/02/03 03:12:51;;;;;;;0.30;0.30;;;5.50;50.30;;;;;;2059400;28;20226;-66
2024/02/03 03:13:52;;;;;;;0.30;0.30;;;5.50;50.50;;;;;;2051956;28;20238;-66
2024/02/03 03:14:52;;;;;;;0.30;0.30;;;5.60;49.70;;;;;;2059715;28;20234;-66
2024/02/03 03:15:53;;;;;;;0.30;0.30;;;5.70;49.70;;;;;;2068472;28;20246;-66
2024/02/03 03:16:54;;;;;;;0.30;0.30;;;5.70;49.50;;;;;;2067915;28;20237;-66
2024/02/03 03:17:55;;;;;;;0.30;0.30;;;5.80;49.20;;;;;;2066796;28;20228;-66
2024/02/03 03:18:55;;;;;;;0.40;0.40;;;5.90;49.30;;;;;;2060349;28;20227;-66
2024/02/03 03:19:56;;;;;;;0.30;0.30;;;6.00;49.60;;;;;;2050304;28;20227;-67
2024/02/03 03:20:59;;;;;;;0.40;0.40;;;6.10;49.10;;;;;;2043441;28;20223;-66
2024/02/03 03:21:59;;;;;;;0.40;0.40;;;6.20;48.50;;;;;;2052419;28;20310;-67
2024/02/03 03:23:00;;;;;;;0.30;0.30;;;6.10;48.30;;;;;;2060280;28;20342;-66
2024/02/03 03:24:01;;;;;;;0.40;0.40;;;6.20;48.20;;;;;;2057671;28;20214;-66
2024/02/03 03:25:01;;;;;;;0.27;0.27;;;6.20;48.30;;;;;;2053917;28;20187;-66
2024/02/03 03:26:02;;;;;;;0.43;0.40;;;6.20;48.40;;;;;;2060546;28;20278;-66
2024/02/03 03:27:03;;;;;;;0.30;0.30;;;6.20;47.90;;;;;;2064096;28;20182;-66
2024/02/03 03:28:04;;;;;;;0.40;0.40;;;6.30;47.40;;;;;;2066369;28;20186;-66
2024/02/03 03:29:05;;;;;;;0.30;0.30;;;6.30;47.00;;;;;;2068967;28;20182;-66
2024/02/03 03:30:07;;;;;;;0.20;0.20;;;6.30;47.00;;;;;;2059057;28;20756;-66
2024/02/03 03:31:07;;;;;;;0.30;0.30;;;6.30;46.90;;;;;;2062210;28;20214;-67
2024/02/03 03:32:08;;;;;;;0.30;0.30;;;6.40;46.80;;;;;;2060214;28;20191;-66
2024/02/03 03:33:09;;;;;;;0.30;0.30;;;6.30;47.00;;;;;;2053171;28;20248;-66
2024/02/03 03:34:10;;;;;;;0.30;0.30;;;6.30;46.50;;;;;;2058418;28;20456;-66
2024/02/03 03:35:10;;;;;;;0.20;0.20;;;6.40;46.40;;;;;;2068811;28;20299;-66
2024/02/03 03:36:11;;;;;;;0.27;0.27;;;6.40;46.30;;;;;;2069061;28;20217;-66
2024/02/03 03:37:12;;;;;;;0.43;0.40;;;6.40;46.00;;;;;;2060086;28;20565;-66
2024/02/03 03:38:12;;;;;;;0.30;0.30;;;6.40;45.70;;;;;;2060706;28;20214;-66
2024/02/03 03:39:13;;;;;;;1.13;0.47;;;6.40;45.50;;;;;;2061173;28;20189;-66
2024/02/03 03:40:14;;;;;;;0.40;0.40;;;6.40;45.00;;;;;;2058865;28;20631;-66
2024/02/03 03:41:14;;;;;;;0.30;0.30;;;6.40;44.90;;;;;;2069202;28;20178;-66
2024/02/03 03:42:15;;;;;;;0.47;0.47;;;6.40;44.60;;;;;;2059963;28;20233;-66
2024/02/03 03:43:16;;;;;;;0.30;0.30;;;6.30;43.10;;;;;;2060206;28;20221;-66
2024/02/03 03:44:16;;;;;;;0.30;0.30;;;6.30;42.90;;;;;;2069304;28;20690;-67
2024/02/03 03:45:17;;;;;;;0.30;0.30;;;6.40;42.50;;;;;;2069319;28;20719;-66
2024/02/03 03:46:17;;;;;;;0.20;0.20;;;6.40;42.10;;;;;;2061652;28;20208;-66
2024/02/03 03:47:21;;;;;;;0.30;0.30;;;6.40;42.10;;;;;;2061554;28;20242;-65
2024/02/03 03:48:21;;;;;;;0.30;0.30;;;6.30;40.90;;;;;;2061339;28;20589;-67
2024/02/03 03:49:22;;;;;;;0.20;0.20;;;6.40;40.80;;;;;;2058429;28;20246;-66
2024/02/03 03:50:23;;;;;;;0.30;0.30;;;6.50;40.20;;;;;;2060108;28;20702;-65
2024/02/03 03:51:23;;;;;;;0.30;0.30;;;6.40;39.70;;;;;;2058939;28;20254;-66
2024/02/03 03:52:24;;;;;;;0.30;0.30;;;6.40;39.30;;;;;;2061146;28;20324;-66
2024/02/03 03:53:24;;;;;;;0.30;0.30;;;6.50;38.70;;;;;;2060858;28;20335;-66
2024/02/03 03:54:25;;;;;;;0.20;0.20;;;6.50;38.20;;;;;;2069380;28;20226;-66
2024/02/03 03:55:26;;;;;;;0.67;0.30;;;6.50;37.70;;;;;;2062729;28;20230;-66
2024/02/03 03:56:31;;;;;;;0.30;0.30;;;6.60;37.10;;;;;;2054525;28;20567;-66
2024/02/03 03:57:31;;;;;;;0.30;0.30;;;6.70;37.10;;;;;;2051124;28;20236;-66
2024/02/03 03:58:32;;;;;;;0.20;0.20;;;6.70;37.50;;;;;;2060989;28;20242;-67
2024/02/03 03:59:33;;;;;;;0.30;0.30;;;6.70;36.40;;;;;;2071450;28;20228;-66
2024/02/03 04:00:33;;;;;;;0.40;0.40;;;6.80;36.70;;;;;;2071119;28;20229;-67
2024/02/03 04:01:34;;;;;;;0.30;0.30;;;6.80;36.60;;;;;;2070419;28;20292;-66
2024/02/03 04:02:35;;;;;;;0.40;0.40;;;6.70;36.40;;;;;;2061858;28;20231;-66
2024/02/03 04:03:35;;;;;;;0.33;0.33;;;6.80;36.60;;;;;;2061164;28;20601;-66
2024/02/03 04:04:37;;;;;;;1.00;0.40;;;6.80;36.80;;;;;;2061654;28;20256;-67
2024/02/03 04:05:38;;;;;;;0.30;0.30;;;6.70;37.70;;;;;;2054686;28;20273;-66
2024/02/03 04:06:39;;;;;;;0.20;0.20;;;6.70;38.40;;;;;;2062712;28;20234;-66
2024/02/03 04:07:39;;;;;;;0.50;0.37;;;6.70;38.10;;;;;;2062030;28;20238;-66
2024/02/03 04:08:40;;;;;;;0.30;0.30;;;6.80;38.20;;;;;;2062291;28;20935;-66
2024/02/03 04:09:48;;;;;;;0.30;0.30;;;6.70;38.60;;;;;;2070938;28;20236;-66
2024/02/03 04:10:48;;;;;;;0.30;0.30;;;6.80;38.50;;;;;;2060151;28;20230;-66
2024/02/03 04:11:49;;;;;;;0.70;0.40;;;6.70;38.80;;;;;;2061513;28;20293;-66
2024/02/03 04:12:49;;;;;;;0.40;0.40;;;6.80;38.80;;;;;;2069511;28;20236;-66
2024/02/03 04:13:50;;;;;;;0.60;0.50;;;6.70;38.80;;;;;;2069875;28;20229;-66
2024/02/03 04:14:51;;;;;;;0.40;0.40;;;6.70;39.50;;;;;;2069981;28;20225;-66
2024/02/03 04:15:53;;;;;;;0.30;0.30;;;6.80;41.30;;;;;;2068859;28;20596;-67
2024/02/03 04:16:53;;;;;;;0.20;0.20;;;6.70;42.00;;;;;;2069977;28;20328;-67
2024/02/03 04:17:57;;;;;;;0.30;0.30;;;6.70;42.70;;;;;;2060759;28;20233;-66
2024/02/03 04:18:58;;;;;;;0.20;0.20;;;6.60;43.00;;;;;;2061326;28;20233;-66
2024/02/03 04:19:59;;;;;;;0.28;0.28;;;6.70;43.10;;;;;;2061528;28;20312;-66
2024/02/03 04:21:00;;;;;;;0.40;0.40;;;6.70;43.40;;;;;;2061692;28;20226;-66
2024/02/03 04:22:01;;;;;;;0.30;0.30;;;6.70;43.60;;;;;;2062134;28;20233;-66
2024/02/03 04:23:01;;;;;;;0.37;0.20;;;6.60;43.70;;;;;;2068183;28;20689;-66
2024/02/03 04:24:02;;;;;;;0.20;0.20;;;6.70;42.70;;;;;;2061715;28;20423;-65
2024/02/03 04:25:03;;;;;;;0.50;0.50;;;6.80;42.80;;;;;;2052079;28;20706;-66
2024/02/03 04:26:04;;;;;;;1.08;0.40;;;6.80;43.00;;;;;;2062153;28;20229;-66
2024/02/03 04:27:05;;;;;;;0.23;0.23;;;6.80;42.70;;;;;;2070220;28;20268;-65
2024/02/03 04:28:06;;;;;;;0.57;0.28;;;6.80;42.90;;;;;;2052941;28;20202;-66
2024/02/03 04:29:07;;;;;;;0.23;0.23;;;6.80;43.00;;;;;;2053460;28;20273;-66
2024/02/03 04:30:08;;;;;;;0.30;0.27;;;6.90;43.40;;;;;;2069854;28;20214;-65
2024/02/03 04:31:08;;;;;;;0.30;0.30;;;6.80;43.30;;;;;;2068924;28;20196;-66
2024/02/03 04:32:11;;;;;;;0.20;0.20;;;6.80;43.20;;;;;;2069609;28;20178;-65
2024/02/03 04:33:12;;;;;;;0.30;0.30;;;6.80;43.50;;;;;;2065026;28;20179;-66
2024/02/03 04:34:19;;;;;;;0.30;0.30;;;6.70;43.80;;;;;;2062908;28;20189;-66
2024/02/03 04:35:20;;;;;;;0.30;0.30;;;6.80;44.10;;;;;;2071045;28;20192;-66
2024/02/03 04:36:21;;;;;;;0.20;0.20;;;6.80;43.70;;;;;;2062972;28;20346;-66
2024/02/03 04:37:22;;;;;;;0.30;0.30;;;6.90;44.00;;;;;;2061404;28;20503;-66
2024/02/03 04:38:22;;;;;;;0.20;0.20;;;7.00;44.00;;;;;;2070349;28;20327;-66
2024/02/03 04:39:23;;;;;;;0.67;0.37;;;7.00;43.80;;;;;;2070236;28;20246;-66
2024/02/03 04:40:24;;;;;;;0.20;0.20;;;7.10;43.70;;;;;;2070169;28;20312;-66
2024/02/03 04:41:25;;;;;;;0.20;0.20;;;7.20;43.90;;;;;;2061464;28;20252;-66
2024/02/03 04:42:26;;;;;;;0.40;0.40;;;7.10;44.10;;;;;;2060805;28;20326;-66
2024/02/03 04:43:27;;;;;;;0.40;0.40;;;7.20;43.90;;;;;;2070970;28;20256;-66
2024/02/03 04:44:28;;;;;;;0.30;0.30;;;7.20;44.10;;;;;;2061834;28;20693;-65
2024/02/03 04:45:28;;;;;;;0.30;0.30;;;7.20;45.00;;;;;;2061751;28;20248;-66
2024/02/03 04:46:29;;;;;;;0.20;0.20;;;7.30;44.80;;;;;;2071856;28;20237;-66
2024/02/03 04:47:30;;;;;;;0.27;0.27;;;7.30;44.80;;;;;;2069912;28;20245;-66
2024/02/03 04:48:30;;;;;;;0.30;0.20;;;7.20;44.70;;;;;;2071053;28;20351;-66
2024/02/03 04:49:31;;;;;;;0.30;0.30;;;7.30;44.50;;;;;;2068794;28;20307;-66
2024/02/03 04:50:33;;;;;;;0.30;0.30;;;7.20;45.00;;;;;;2070281;28;20754;-66
2024/02/03 04:51:33;;;;;;;0.20;0.20;;;7.20;44.10;;;;;;2061413;28;20237;-66
2024/02/03 04:52:34;;;;;;;0.33;0.30;;;7.20;44.10;;;;;;2061565;28;20233;-66
2024/02/03 04:53:35;;;;;;;0.20;0.20;;;7.20;44.10;;;;;;2068969;28;20661;-66
2024/02/03 04:54:35;;;;;;;0.33;0.33;;;7.20;44.30;;;;;;2053276;28;20233;-66
2024/02/03 04:55:36;;;;;;;0.30;0.30;;;7.20;43.60;;;;;;2054132;28;20238;-66
2024/02/03 04:56:37;;;;;;;0.40;0.40;;;7.20;43.60;;;;;;2069619;28;20237;-66
2024/02/03 04:57:37;;;;;;;0.30;0.30;;;7.20;43.20;;;;;;2062042;28;20240;-65
2024/02/03 04:58:38;;;;;;;0.30;0.30;;;7.20;43.70;;;;;;2061302;28;20260;-66
2024/02/03 04:59:39;;;;;;;0.20;0.20;;;7.20;42.90;;;;;;2061702;28;20244;-66
2024/02/03 05:00:39;;;;;;;0.40;0.40;;;7.20;42.40;;;;;;2061586;28;20701;-67
2024/02/03 05:01:40;;;;;;;0.30;0.30;;;7.10;41.50;;;;;;2070361;28;20244;-66
2024/02/03 05:02:41;;;;;;;0.30;0.30;;;7.10;41.60;;;;;;2070114;28;20248;-66
2024/02/03 05:03:41;;;;;;;0.30;0.30;;;7.20;42.20;;;;;;2061498;28;20327;-66
2024/02/03 05:04:42;;;;;;;0.30;0.30;;;7.20;42.10;;;;;;2057286;28;20238;-66
2024/02/03 05:05:44;;;;;;;0.40;0.40;;;7.20;41.70;;;;;;2064578;28;20236;-66
2024/02/03 05:06:44;;;;;;;0.43;0.40;;;7.20;41.60;;;;;;2069118;28;20236;-67
2024/02/03 05:07:46;;;;;;;0.40;0.27;;;7.20;41.40;;;;;;2067927;28;20232;-66
2024/02/03 05:08:47;;;;;;;0.30;0.30;;;7.20;41.50;;;;;;2070923;28;20719;-66
2024/02/03 05:09:47;;;;;;;0.20;0.20;;;7.10;41.30;;;;;;2070274;28;20236;-66
2024/02/03 05:10:48;;;;;;;1.03;0.40;;;7.10;41.40;;;;;;2070139;28;20812;-66
2024/02/03 05:11:49;;;;;;;0.30;0.30;;;6.90;41.00;;;;;;2070577;28;20227;-66
2024/02/03 05:12:50;;;;;;;1.38;0.40;;;6.90;41.00;;;;;;2070409;28;20226;-66
2024/02/03 05:13:51;;;;;;;0.20;0.20;;;6.90;41.20;;;;;;2061135;28;20226;-66
2024/02/03 05:14:52;;;;;;;0.40;0.40;;;6.90;41.30;;;;;;2061451;28;20256;-66
2024/02/03 05:15:53;;;;;;;0.30;0.30;;;6.80;41.30;;;;;;2061752;28;20228;-66
2024/02/03 05:16:53;;;;;;;0.30;0.30;;;6.70;41.10;;;;;;2061403;28;20776;-66
2024/02/03 05:17:54;;;;;;;0.40;0.27;;;6.70;41.20;;;;;;2066152;28;20242;-67
2024/02/03 05:18:55;;;;;;;0.50;0.50;;;6.60;41.10;;;;;;2061310;28;20225;-67
2024/02/03 05:19:56;;;;;;;1.02;0.25;;;6.60;41.10;;;;;;2053225;28;20310;-66
2024/02/03 05:20:57;;;;;;;0.30;0.30;;;6.60;41.10;;;;;;2045455;28;20236;-66
2024/02/03 05:21:57;;;;;;;0.43;0.37;;;6.50;40.90;;;;;;2052907;28;20605;-66